Time;durP1;ratioP1;P1;durP2;ratioP2;P2;SDS_P1;SDS_P2;PMS_P1;PMS_P2;Temp;Humidity;BMP_temperature;BMP_pressure;BME280_temperature;BME280_humidity;BME280_pressure;Samples;Min_cycle;Max_cycle;Signal;HPM_P1;HPM_P2
2021/01/21 00:00:37;;;;;;;2.50;2.30;;;;;;;7.02;55.48;94928.13;5010899;28;20219;-59
2021/01/21 00:03:02;;;;;;;3.57;2.93;;;;;;;7.06;54.99;94931.84;5011608;28;20228;-62
2021/01/21 00:05:28;;;;;;;4.27;2.77;;;;;;;7.15;55.15;94931.22;5010895;28;20206;-59
2021/01/21 00:07:53;;;;;;;2.50;2.30;;;;;;;7.37;54.52;94941.72;5011790;28;21248;-58
2021/01/21 00:10:19;;;;;;;3.60;2.70;;;;;;;7.45;54.27;94945.72;5012258;28;20653;-59
2021/01/21 00:12:44;;;;;;;7.80;2.60;;;;;;;7.75;52.62;94957.38;5010371;28;20180;-63
2021/01/21 00:15:09;;;;;;;2.97;2.30;;;;;;;7.62;53.29;94959.53;5012932;28;20210;-58
2021/01/21 00:17:35;;;;;;;2.17;1.80;;;;;;;7.52;52.50;94972.47;5013347;28;20175;-63
2021/01/21 00:20:00;;;;;;;2.20;2.00;;;;;;;7.67;52.33;94968.25;5005187;28;20583;-58
2021/01/21 00:22:25;;;;;;;2.03;1.93;;;;;;;7.77;51.70;94950.06;5015375;28;20207;-59
2021/01/21 00:24:51;;;;;;;1.87;1.73;;;;;;;7.97;51.25;94958.16;5011980;28;20565;-58
2021/01/21 00:27:16;;;;;;;2.10;1.90;;;;;;;7.94;50.81;94953.41;5015970;28;20173;-65
2021/01/21 00:29:41;;;;;;;1.53;1.40;;;;;;;7.94;51.41;94950.81;5006922;28;20539;-58
2021/01/21 00:32:07;;;;;;;1.77;1.40;;;;;;;8.05;50.16;94949.88;4996419;28;20178;-62
2021/01/21 00:34:32;;;;;;;1.50;1.40;;;;;;;8.20;49.55;94955.28;4995841;28;20192;-57
2021/01/21 00:36:57;;;;;;;2.00;1.90;;;;;;;8.14;49.50;94937.16;5004310;28;20204;-58
2021/01/21 00:39:23;;;;;;;1.90;1.60;;;;;;;8.01;49.56;94946.16;4998061;28;20226;-58
2021/01/21 00:41:48;;;;;;;2.40;1.80;;;;;;;8.20;49.44;94949.25;5015378;28;20174;-62
2021/01/21 00:44:13;;;;;;;1.50;1.40;;;;;;;8.08;49.26;94956.47;4994936;28;20205;-58
2021/01/21 00:46:39;;;;;;;1.77;1.30;;;;;;;8.04;50.30;94950.13;4996253;28;20260;-63
2021/01/21 00:49:04;;;;;;;2.60;1.50;;;;;;;8.08;49.01;94936.31;4997082;28;20200;-58
2021/01/21 00:51:30;;;;;;;1.50;1.40;;;;;;;8.21;48.89;94937.75;4995863;28;20189;-63
2021/01/21 00:53:55;;;;;;;1.53;1.40;;;;;;;8.35;48.00;94919.88;5013216;28;20279;-63
2021/01/21 00:56:21;;;;;;;1.60;1.40;;;;;;;8.39;48.31;94945.28;5015531;28;20184;-58
2021/01/21 00:58:46;;;;;;;1.43;1.33;;;;;;;8.48;47.74;94935.19;5013753;28;20230;-63
2021/01/21 01:01:12;;;;;;;1.40;1.30;;;;;;;8.69;47.61;94926.47;5015486;28;20178;-63
2021/01/21 01:03:37;;;;;;;2.20;1.80;;;;;;;8.81;47.16;94924.47;4997911;28;20202;-64
2021/01/21 01:06:06;;;;;;;2.60;1.17;;;;;;;8.84;46.82;94921.38;5002004;28;20304;-63
2021/01/21 01:08:33;;;;;;;2.60;1.57;;;;;;;8.70;46.18;94922.81;5015150;28;20204;-58
2021/01/21 01:10:59;;;;;;;1.83;1.30;;;;;;;8.89;46.58;94913.56;5013696;28;20423;-59
2021/01/21 01:13:24;;;;;;;1.43;1.30;;;;;;;8.79;46.62;94918.69;5014673;28;20480;-63
2021/01/21 01:15:49;;;;;;;2.13;1.93;;;;;;;8.80;46.80;94915.06;5014954;28;20172;-63
2021/01/21 01:18:15;;;;;;;0.90;0.90;;;;;;;8.82;46.85;94920.84;5014387;28;20652;-58
2021/01/21 01:20:40;;;;;;;1.43;1.33;;;;;;;8.70;46.51;94904.47;5014935;28;20180;-58
2021/01/21 01:23:06;;;;;;;1.93;1.50;;;;;;;8.66;46.66;94914.66;4999853;28;20690;-58
2021/01/21 01:25:33;;;;;;;1.50;1.23;;;;;;;8.77;46.81;94910.31;4995163;28;20531;-63
2021/01/21 01:27:58;;;;;;;2.77;1.50;;;;;;;8.72;46.68;94900.59;4995275;28;20681;-58
2021/01/21 01:30:24;;;;;;;1.50;1.40;;;;;;;8.68;46.34;94909.97;4995279;28;20437;-58
2021/01/21 01:32:49;;;;;;;1.43;1.20;;;;;;;8.64;46.85;94901.03;5009273;28;20183;-63
2021/01/21 01:35:16;;;;;;;2.87;1.30;;;;;;;8.44;47.27;94903.50;5014609;28;20200;-58
2021/01/21 01:37:44;;;;;;;1.77;1.53;;;;;;;8.57;47.11;94903.06;5012619;28;20176;-57
2021/01/21 01:40:11;;;;;;;1.60;1.20;;;;;;;8.53;47.11;94912.47;4999400;28;20905;-58
2021/01/21 01:42:36;;;;;;;1.60;1.50;;;;;;;8.51;47.67;94908.50;5006837;28;20458;-62
2021/01/21 01:45:03;;;;;;;1.80;1.23;;;;;;;8.63;47.72;94909.13;5013083;28;20445;-63
2021/01/21 01:47:28;;;;;;;0.97;0.97;;;;;;;8.50;47.76;94899.09;5014015;28;20526;-62
2021/01/21 01:49:57;;;;;;;2.27;1.50;;;;;;;8.51;47.92;94908.50;5014460;28;20406;-58
2021/01/21 01:52:26;;;;;;;1.40;1.30;;;;;;;8.50;48.01;94905.09;5014684;28;20169;-61
2021/01/21 01:54:51;;;;;;;1.30;1.20;;;;;;;8.45;48.37;94897.22;5014240;28;20432;-59
2021/01/21 01:57:17;;;;;;;1.23;1.13;;;;;;;8.62;48.11;94889.25;5011883;28;20829;-58
2021/01/21 01:59:43;;;;;;;2.00;1.47;;;;;;;8.57;47.95;94884.75;5008858;28;20185;-58
2021/01/21 02:02:09;;;;;;;1.33;1.10;;;;;;;8.76;47.61;94887.78;4994578;28;20416;-63
2021/01/21 02:04:34;;;;;;;2.30;1.37;;;;;;;8.68;48.14;94881.16;4994059;28;20292;-63
2021/01/21 02:06:59;;;;;;;2.00;1.53;;;;;;;8.73;47.63;94883.06;4994389;28;20202;-58
2021/01/21 02:09:27;;;;;;;1.43;1.30;;;;;;;8.69;47.16;94874.91;4994787;28;20484;-63
2021/01/21 02:11:55;;;;;;;1.37;1.10;;;;;;;8.54;47.48;94876.59;4994707;28;20702;-58
2021/01/21 03:31:57;;;;;;;1.17;1.07;;;;;;;9.05;46.02;94826.97;5146337;27;20528;-62
2021/01/21 03:34:22;;;;;;;1.87;1.30;;;;;;;8.95;46.16;94837.38;5138258;27;20433;-57
2021/01/21 03:36:48;;;;;;;2.93;1.03;;;;;;;9.00;46.08;94841.88;5131543;28;20180;-58
2021/01/21 03:39:14;;;;;;;2.07;1.10;;;;;;;8.83;46.28;94830.75;5112087;28;20194;-62
2021/01/21 03:41:39;;;;;;;1.60;1.50;;;;;;;8.81;46.48;94830.19;5111265;28;20491;-57
2021/01/21 03:44:05;;;;;;;1.30;0.90;;;;;;;8.89;46.51;94822.69;5101038;28;20686;-62
2021/01/21 03:46:31;;;;;;;1.33;1.23;;;;;;;8.75;46.42;94818.13;5090941;28;20170;-58
2021/01/21 03:48:56;;;;;;;1.23;1.13;;;;;;;8.71;46.60;94827.53;5090790;28;20553;-57
2021/01/21 03:51:21;;;;;;;1.83;1.20;;;;;;;8.88;46.87;94815.06;5091921;28;20217;-62
2021/01/21 03:53:47;;;;;;;1.20;0.80;;;;;;;8.77;46.29;94808.22;5109767;28;20636;-58
2021/01/21 03:56:12;;;;;;;1.07;1.03;;;;;;;8.79;46.20;94803.47;5110938;28;20204;-61
2021/01/21 03:58:38;;;;;;;1.23;1.17;;;;;;;8.79;46.76;94800.84;5110985;28;20195;-62
2021/01/21 04:01:03;;;;;;;1.00;1.00;;;;;;;8.90;46.80;94802.50;5110577;28;20181;-62
2021/01/21 04:03:29;;;;;;;1.40;1.00;;;;;;;8.93;46.65;94805.41;5108806;28;20186;-58
2021/01/21 04:05:54;;;;;;;2.00;1.30;;;;;;;8.68;47.36;94810.47;5109272;28;20174;-61
2021/01/21 04:08:19;;;;;;;1.27;1.17;;;;;;;8.82;47.26;94801.13;5110351;28;20343;-62
2021/01/21 04:10:45;;;;;;;1.23;1.10;;;;;;;8.75;47.20;94790.09;5110632;28;20221;-57
2021/01/21 04:13:10;;;;;;;1.73;1.20;;;;;;;8.86;47.00;94794.38;5109638;28;20182;-62
2021/01/21 04:15:36;;;;;;;3.17;1.40;;;;;;;8.91;46.73;94801.47;5110774;28;20186;-57
2021/01/21 04:18:01;;;;;;;1.43;1.10;;;;;;;8.98;46.83;94805.44;5110486;28;20195;-58
2021/01/21 04:20:26;;;;;;;1.27;0.90;;;;;;;8.83;47.36;94810.59;5109980;28;20175;-58
2021/01/21 04:22:52;;;;;;;1.27;1.03;;;;;;;9.04;46.75;94801.03;5105863;28;20539;-57
2021/01/21 04:25:17;;;;;;;1.03;0.90;;;;;;;9.11;46.73;94802.34;5090112;28;20173;-62
2021/01/21 04:27:42;;;;;;;1.93;1.17;;;;;;;9.06;47.09;94804.16;5090046;28;20207;-62
2021/01/21 04:30:08;;;;;;;0.90;0.90;;;;;;;9.06;46.42;94815.44;5089855;28;20211;-57
2021/01/21 04:32:34;;;;;;;1.03;1.00;;;;;;;9.01;46.85;94810.16;5107209;28;20647;-58
2021/01/21 04:34:59;;;;;;;1.87;1.20;;;;;;;9.17;46.40;94821.50;5108195;28;20417;-62
2021/01/21 04:37:24;;;;;;;1.77;1.20;;;;;;;9.03;46.56;94821.19;5109312;28;20201;-62
2021/01/21 04:39:50;;;;;;;2.43;1.17;;;;;;;9.30;46.76;94818.44;5110131;28;20249;-62
2021/01/21 04:42:15;;;;;;;1.30;1.10;;;;;;;9.21;45.92;94826.00;5102347;28;20176;-57
2021/01/21 04:44:41;;;;;;;1.33;0.80;;;;;;;9.13;46.38;94826.47;5096185;28;20215;-62
2021/01/21 04:47:08;;;;;;;1.17;1.07;;;;;;;9.07;46.77;94816.22;5082811;28;20198;-62
2021/01/21 04:49:40;;;;;;;1.53;1.30;;;;;;;8.83;47.08;94813.22;5092575;28;20183;-57
2021/01/21 04:52:07;;;;;;;1.17;1.10;;;;;;;9.08;46.66;94812.56;5094961;28;20931;-62
2021/01/21 04:54:42;;;;;;;0.90;0.90;;;;;;;9.10;46.48;94819.13;5075736;28;20880;-62
2021/01/21 04:57:14;;;;;;;0.70;0.70;;;;;;;9.17;45.74;94813.66;5092393;28;20509;-62
2021/01/21 04:59:40;;;;;;;3.67;1.10;;;;;;;9.17;45.88;94830.16;5096193;28;20407;-57
2021/01/21 05:02:07;;;;;;;0.93;0.90;;;;;;;9.37;45.47;94820.84;5095894;28;20763;-61
2021/01/21 05:04:32;;;;;;;2.57;1.00;;;;;;;9.27;45.50;94837.28;5095065;28;20455;-57
2021/01/21 05:06:59;;;;;;;1.97;1.10;;;;;;;9.26;45.71;94830.47;5095316;28;20806;-57
2021/01/21 05:09:25;;;;;;;1.37;0.87;;;;;;;9.23;45.62;94816.06;5096044;28;20175;-62
2021/01/21 05:11:50;;;;;;;1.67;1.20;;;;;;;9.40;45.46;94810.63;5095294;28;21005;-58
2021/01/21 05:14:16;;;;;;;1.33;1.23;;;;;;;9.32;46.19;94816.34;5095468;28;20178;-58
2021/01/21 05:16:43;;;;;;;1.80;1.00;;;;;;;9.24;45.82;94822.84;5095429;28;20832;-57
2021/01/21 05:19:14;;;;;;;1.00;0.87;;;;;;;9.47;45.78;94823.50;5095717;28;20636;-57
2021/01/21 05:21:40;;;;;;;1.10;1.00;;;;;;;9.52;44.88;94818.25;5095352;28;20399;-58
2021/01/21 05:24:09;;;;;;;2.40;1.20;;;;;;;9.42;44.99;94808.50;5074992;28;20795;-62
2021/01/21 05:26:35;;;;;;;1.43;1.33;;;;;;;9.37;45.40;94808.50;5082553;28;20426;-58
2021/01/21 05:29:00;;;;;;;1.30;0.77;;;;;;;9.37;45.19;94813.75;5095389;28;20429;-58
2021/01/21 05:31:28;;;;;;;1.17;1.00;;;;;;;9.37;45.12;94808.50;5104193;28;20578;-59
2021/01/21 05:33:55;;;;;;;1.00;0.80;;;;;;;9.40;45.06;94817.69;5074918;28;20184;-57
2021/01/21 05:36:21;;;;;;;1.20;1.00;;;;;;;9.50;44.61;94813.28;5075449;28;20488;-57
2021/01/21 05:38:54;;;;;;;1.03;1.00;;;;;;;9.48;44.91;94820.59;5085044;28;20524;-58
2021/01/21 05:41:19;;;;;;;0.80;0.80;;;;;;;9.58;44.30;94812.78;5095128;28;20169;-60
2021/01/21 05:43:48;;;;;;;0.93;0.80;;;;;;;9.61;44.55;94809.66;5094403;28;20583;-62
2021/01/21 05:46:13;;;;;;;1.10;0.80;;;;;;;9.75;43.75;94815.19;5095254;28;20182;-62
2021/01/21 05:48:39;;;;;;;1.10;0.90;;;;;;;9.67;44.24;94808.63;5095124;28;20786;-57
2021/01/21 05:51:05;;;;;;;0.90;0.87;;;;;;;9.64;44.11;94810.97;5094963;28;20199;-58
2021/01/21 05:53:30;;;;;;;0.93;0.87;;;;;;;9.82;43.63;94821.75;5093576;28;20177;-63
2021/01/21 05:55:56;;;;;;;0.93;0.83;;;;;;;9.76;43.73;94814.94;5094751;28;20418;-63
2021/01/21 05:58:22;;;;;;;1.00;0.90;;;;;;;9.89;44.19;94811.81;5094855;28;20200;-57
2021/01/21 06:00:47;;;;;;;2.00;0.90;;;;;;;9.71;44.06;94804.41;5100499;28;20199;-58
2021/01/21 06:03:13;;;;;;;1.13;1.07;;;;;;;9.66;44.26;94814.91;5079039;28;20889;-57
2021/01/21 06:05:39;;;;;;;1.23;1.10;;;;;;;9.45;44.81;94802.78;5074843;28;20176;-63
2021/01/21 06:08:05;;;;;;;1.50;1.20;;;;;;;9.49;44.97;94806.47;5080444;28;20202;-58
2021/01/21 06:10:33;;;;;;;1.13;1.00;;;;;;;9.55;44.58;94807.28;5076482;28;20462;-62
2021/01/21 06:13:05;;;;;;;2.40;1.30;;;;;;;9.64;44.77;94809.13;5093274;28;20237;-57
2021/01/21 06:15:31;;;;;;;2.33;1.30;;;;;;;9.51;45.06;94811.44;5094751;28;20411;-63
2021/01/21 06:17:57;;;;;;;1.80;1.20;;;;;;;9.35;45.19;94811.38;5094583;28;20435;-57
2021/01/21 06:20:22;;;;;;;2.17;1.63;;;;;;;9.26;45.26;94805.06;5094500;28;20400;-58
2021/01/21 06:22:53;;;;;;;1.17;1.10;;;;;;;9.37;45.43;94813.75;5085168;28;20198;-58
2021/01/21 06:25:21;;;;;;;2.30;1.70;;;;;;;9.38;44.99;94816.09;5094660;28;20233;-58
2021/01/21 06:27:46;;;;;;;2.40;1.97;;;;;;;9.47;44.84;94808.56;5094493;28;20579;-57
2021/01/21 06:30:18;;;;;;;1.20;1.10;;;;;;;9.51;44.53;94804.34;5094575;28;20545;-58
2021/01/21 06:33:02;;;;;;;1.53;1.43;;;;;;;9.45;44.74;94805.41;5085411;28;20188;-58
2021/01/21 06:35:32;;;;;;;1.30;1.10;;;;;;;9.59;44.59;94806.50;5085094;28;20460;-58
2021/01/21 06:38:05;;;;;;;1.17;1.03;;;;;;;9.58;44.49;94809.38;5092855;28;20437;-57
2021/01/21 06:40:33;;;;;;;1.13;0.90;;;;;;;9.62;45.19;94821.69;5094198;28;20398;-62
2021/01/21 06:43:16;;;;;;;2.20;1.10;;;;;;;9.70;45.00;94809.94;5093162;28;20434;-57
2021/01/21 06:45:43;;;;;;;1.13;0.93;;;;;;;9.81;44.48;94822.03;5094314;28;20877;-62
2021/01/21 06:48:10;;;;;;;0.80;0.80;;;;;;;9.64;45.18;94827.47;5094013;28;20449;-57
2021/01/21 06:50:37;;;;;;;1.87;1.20;;;;;;;9.63;45.37;94832.97;5093467;28;20568;-57
2021/01/21 06:53:05;;;;;;;1.30;1.00;;;;;;;9.67;45.74;94823.56;5092802;28;20934;-58
2021/01/21 06:55:35;;;;;;;1.07;0.90;;;;;;;9.87;45.98;94821.78;5093979;28;20888;-63
2021/01/21 06:58:00;;;;;;;1.90;1.20;;;;;;;9.79;46.21;94814.41;5093744;28;20466;-57
2021/01/21 07:00:46;;;;;;;2.83;1.50;;;;;;;9.74;46.92;94803.91;5096201;28;20490;-61
2021/01/21 07:03:30;;;;;;;2.43;1.13;;;;;;;9.68;47.89;94809.41;5085377;28;20215;-56
2021/01/21 07:05:58;;;;;;;1.20;1.10;;;;;;;9.87;48.19;94824.41;5093543;28;20421;-62
2021/01/21 07:08:23;;;;;;;3.97;1.90;;;;;;;9.69;50.17;94803.13;5093822;28;20458;-56
2021/01/21 07:10:50;;;;;;;1.27;1.17;;;;;;;9.79;51.13;94808.38;5092370;28;20458;-58
2021/01/21 07:13:21;;;;;;;0.97;0.97;;;;;;;9.73;52.19;94804.94;5093258;28;20571;-62
2021/01/21 07:15:48;;;;;;;1.30;0.97;;;;;;;9.64;53.74;94814.38;5093545;28;20954;-62
2021/01/21 07:18:22;;;;;;;1.07;0.97;;;;;;;9.65;54.40;94808.09;5093072;28;20549;-56
2021/01/21 07:20:59;;;;;;;2.10;1.30;;;;;;;9.68;55.72;94802.31;5092706;28;20517;-62
2021/01/21 07:23:37;;;;;;;0.77;0.77;;;;;;;9.53;57.26;94812.75;5093063;28;20413;-61
2021/01/21 07:26:42;;;;;;;6.00;0.93;;;;;;;9.63;57.90;94806.75;5093501;28;20399;-61
2021/01/21 07:29:11;;;;;;;0.70;0.70;;;;;;;9.62;58.49;94813.84;5093442;28;20425;-56
2021/01/21 07:31:51;;;;;;;0.70;0.70;;;;;;;9.59;58.97;94808.31;5094360;28;20539;-57
2021/01/21 07:34:37;;;;;;;0.93;0.80;;;;;;;9.56;59.01;94809.63;5073190;28;20431;-63
2021/01/21 07:37:24;;;;;;;0.70;0.70;;;;;;;9.60;59.61;94802.03;5073044;28;20401;-57
2021/01/21 07:39:49;;;;;;;0.70;0.70;;;;;;;9.55;59.78;94818.53;5084754;28;20422;-63
2021/01/21 07:42:15;;;;;;;1.10;0.90;;;;;;;9.61;59.73;94806.22;5088646;28;20914;-56
2021/01/21 07:44:57;;;;;;;1.17;0.80;;;;;;;9.51;60.46;94806.22;5072755;28;20264;-56
2021/01/21 07:47:24;;;;;;;1.03;0.90;;;;;;;9.52;60.55;94813.81;5092446;28;20449;-55
2021/01/21 07:49:49;;;;;;;1.10;0.70;;;;;;;9.62;60.39;94808.59;5093041;28;20427;-57
2021/01/21 07:52:15;;;;;;;0.90;0.90;;;;;;;9.60;60.54;94823.78;5093480;28;20420;-57
2021/01/21 07:54:46;;;;;;;1.33;1.07;;;;;;;9.73;59.83;94804.94;5092206;28;20184;-57
2021/01/21 07:57:11;;;;;;;1.13;0.73;;;;;;;9.70;59.93;94828.28;5093383;28;20227;-61
2021/01/21 07:59:58;;;;;;;1.13;0.70;;;;;;;9.66;60.09;94825.38;5092886;28;20937;-61
2021/01/21 08:02:24;;;;;;;0.60;0.60;;;;;;;9.69;59.99;94798.66;5112015;28;20232;-58
2021/01/21 08:05:00;;;;;;;2.20;1.03;;;;;;;9.62;60.63;94813.84;5073905;28;20936;-57
2021/01/21 08:07:52;;;;;;;0.80;0.80;;;;;;;9.76;60.22;94799.22;5072887;28;20196;-57
2021/01/21 08:10:25;;;;;;;0.60;0.57;;;;;;;9.74;60.32;94800.50;5081916;28;20465;-58
2021/01/21 08:12:56;;;;;;;0.90;0.90;;;;;;;9.83;59.84;94799.75;5092768;28;20411;-61
2021/01/21 08:15:24;;;;;;;0.83;0.80;;;;;;;9.81;60.08;94801.03;5092080;28;20467;-59
2021/01/21 08:17:51;;;;;;;1.10;0.90;;;;;;;9.93;59.53;94797.13;5094868;28;20454;-55
2021/01/21 08:20:18;;;;;;;1.33;0.90;;;;;;;9.98;59.51;94796.38;5096042;28;20904;-59
2021/01/21 08:23:03;;;;;;;0.87;0.87;;;;;;;9.93;59.79;94805.00;5096350;28;20508;-56
2021/01/21 08:25:39;;;;;;;0.80;0.80;;;;;;;10.04;59.57;94803.19;5096753;28;20398;-59
2021/01/21 08:28:05;;;;;;;0.90;0.90;;;;;;;10.05;59.71;94804.78;5096533;28;20505;-57
2021/01/21 08:30:31;;;;;;;0.80;0.80;;;;;;;10.07;59.74;94802.69;5088544;28;20469;-61
2021/01/21 08:33:16;;;;;;;0.70;0.70;;;;;;;10.03;60.15;94809.47;5106978;28;20668;-62
2021/01/21 08:35:54;;;;;;;0.70;0.70;;;;;;;10.17;59.94;94802.69;5088915;28;20538;-62
2021/01/21 08:38:35;;;;;;;2.47;0.83;;;;;;;10.32;59.37;94806.16;5085487;28;20454;-60
2021/01/21 08:41:02;;;;;;;0.70;0.70;;;;;;;10.01;60.76;94809.75;5089390;28;20426;-60
2021/01/21 08:43:29;;;;;;;1.13;1.00;;;;;;;10.23;60.35;94815.59;5089611;28;20905;-60
2021/01/21 08:45:55;;;;;;;0.73;0.70;;;;;;;10.10;61.17;94821.34;5087491;28;20439;-59
2021/01/21 08:48:29;;;;;;;0.80;0.80;;;;;;;9.91;62.01;94843.06;5069770;28;20461;-61
2021/01/21 08:50:56;;;;;;;1.10;1.00;;;;;;;9.99;61.99;94824.16;5086200;28;20883;-61
2021/01/21 08:53:26;;;;;;;0.80;0.70;;;;;;;10.04;61.84;94834.66;5085522;28;20955;-62
2021/01/21 08:55:54;;;;;;;1.13;0.90;;;;;;;10.03;61.77;94849.63;5089297;28;20441;-61
2021/01/21 08:58:27;;;;;;;1.00;0.90;;;;;;;9.89;62.04;94834.66;5089345;28;20466;-62
2021/01/21 09:01:14;;;;;;;0.80;0.80;;;;;;;9.86;62.10;94841.19;5088058;28;20435;-60
2021/01/21 09:03:53;;;;;;;2.20;1.30;;;;;;;10.02;61.81;94842.81;5089934;28;20800;-61
2021/01/21 09:06:20;;;;;;;1.17;0.80;;;;;;;9.96;62.11;94824.69;5093534;28;20515;-63
2021/01/21 09:08:50;;;;;;;0.60;0.60;;;;;;;10.06;61.98;94828.13;5088526;28;20459;-64
2021/01/21 09:11:39;;;;;;;1.20;1.10;;;;;;;10.34;60.97;94822.41;5092100;28;20491;-61
2021/01/21 09:14:23;;;;;;;1.47;0.80;;;;;;;10.46;60.33;94822.16;5090055;28;20426;-63
2021/01/21 09:16:52;;;;;;;0.80;0.80;;;;;;;10.43;60.60;94829.75;5095761;28;20439;-61
2021/01/21 09:19:38;;;;;;;1.00;0.90;;;;;;;10.61;60.28;94827.41;5092086;28;20454;-62
2021/01/21 09:22:05;;;;;;;1.00;1.00;;;;;;;10.82;58.73;94836.84;5085719;28;20438;-62
2021/01/21 09:24:53;;;;;;;1.93;0.90;;;;;;;10.99;58.69;94831.31;5086391;28;20521;-63
2021/01/21 09:27:18;;;;;;;1.20;1.10;;;;;;;11.22;58.41;94831.53;5092637;28;20491;-61
2021/01/21 09:29:51;;;;;;;0.70;0.70;;;;;;;11.17;58.39;94839.44;5095340;28;20447;-62
2021/01/21 09:32:22;;;;;;;1.07;0.73;;;;;;;11.49;57.30;94846.16;5092830;28;20220;-61
2021/01/21 09:34:59;;;;;;;1.13;0.90;;;;;;;11.24;57.85;94842.56;5092220;28;20482;-62
2021/01/21 09:37:26;;;;;;;0.80;0.80;;;;;;;11.06;58.72;94839.69;5095169;28;20433;-63
2021/01/21 09:39:52;;;;;;;1.20;1.10;;;;;;;11.23;58.11;94840.19;5093893;28;20551;-61
2021/01/21 09:42:18;;;;;;;0.67;0.67;;;;;;;11.28;58.39;94832.28;5090694;28;20435;-62
2021/01/21 09:44:44;;;;;;;0.83;0.80;;;;;;;11.68;57.54;94826.13;5084845;28;20454;-63
2021/01/21 09:47:09;;;;;;;0.87;0.87;;;;;;;11.75;56.83;94837.94;5092551;28;20476;-62
2021/01/21 09:49:35;;;;;;;1.00;0.83;;;;;;;11.86;56.50;94831.56;5094585;28;20173;-60
2021/01/21 09:52:00;;;;;;;0.60;0.60;;;;;;;12.20;55.80;94834.28;5088264;28;20209;-63
2021/01/21 09:54:27;;;;;;;1.50;1.03;;;;;;;12.19;56.09;94822.94;5083571;28;20253;-63
2021/01/21 09:56:54;;;;;;;1.03;1.00;;;;;;;12.47;55.07;94825.91;5087419;28;20182;-63
2021/01/21 09:59:19;;;;;;;3.20;0.70;;;;;;;12.58;55.19;94844.03;5089115;28;20534;-61
2021/01/21 10:01:46;;;;;;;1.57;0.83;;;;;;;12.43;55.06;94852.81;5085270;28;20528;-63
2021/01/21 10:04:12;;;;;;;1.00;0.77;;;;;;;12.54;55.46;94840.34;5083115;28;20863;-62
2021/01/21 10:06:37;;;;;;;2.63;0.73;;;;;;;12.59;54.97;94858.75;5088538;28;20511;-63
2021/01/21 10:09:03;;;;;;;0.77;0.77;;;;;;;12.65;54.58;94831.31;5087872;28;20213;-61
2021/01/21 10:11:28;;;;;;;5.70;2.17;;;;;;;12.93;53.52;94832.41;5094243;28;20544;-61
2021/01/21 10:13:53;;;;;;;0.63;0.60;;;;;;;12.74;54.19;94836.78;5090183;28;20185;-61
2021/01/21 10:16:19;;;;;;;2.10;1.37;;;;;;;13.09;53.07;94839.94;5094719;28;20170;-63
2021/01/21 10:18:44;;;;;;;1.77;1.67;;;;;;;12.91;53.93;94842.44;5093805;28;20212;-65
2021/01/21 10:21:10;;;;;;;0.70;0.70;;;;;;;13.04;53.58;94841.81;5090248;28;20189;-66
2021/01/21 10:23:36;;;;;;;1.03;0.70;;;;;;;12.64;54.47;94834.22;5070318;28;20640;-66
2021/01/21 10:26:01;;;;;;;1.33;1.10;;;;;;;12.66;54.61;94846.06;5088800;28;20443;-64
2021/01/21 10:28:26;;;;;;;0.73;0.70;;;;;;;12.43;55.82;94839.66;5090716;28;20202;-68
2021/01/21 10:30:52;;;;;;;0.77;0.60;;;;;;;12.46;56.33;94840.16;5089138;28;20540;-67
2021/01/21 10:33:17;;;;;;;1.73;1.17;;;;;;;12.41;56.23;94852.28;5083162;28;20186;-66
2021/01/21 10:35:42;;;;;;;5.00;3.60;;;;;;;12.11;57.46;94851.69;5082151;28;20221;-64
2021/01/21 10:38:08;;;;;;;1.50;0.93;;;;;;;11.96;57.70;94859.66;5081032;28;20273;-64
2021/01/21 10:40:33;;;;;;;9.33;6.00;;;;;;;12.17;57.37;94866.41;5083846;28;20606;-64
2021/01/21 10:42:58;;;;;;;1.23;1.07;;;;;;;12.21;57.35;94851.66;5089868;28;20224;-64
2021/01/21 10:45:24;;;;;;;1.70;0.70;;;;;;;12.23;57.03;94855.56;5087592;28;20186;-63
2021/01/21 10:47:49;;;;;;;1.03;0.93;;;;;;;12.46;56.41;94859.41;5063160;28;20588;-64
2021/01/21 10:50:15;;;;;;;4.53;2.97;;;;;;;12.16;59.11;94865.63;5087494;28;20549;-71
2021/01/21 10:52:40;;;;;;;1.50;1.40;;;;;;;11.92;62.47;94867.31;5090260;28;20166;-64
2021/01/21 10:55:06;;;;;;;1.17;1.07;;;;;;;11.76;62.53;94867.69;5089068;28;20846;-67
2021/01/21 10:57:31;;;;;;;1.90;1.30;;;;;;;11.83;63.50;94863.69;5084532;28;20217;-67
2021/01/21 10:59:57;;;;;;;1.37;1.27;;;;;;;11.95;62.67;94866.00;5070890;28;20281;-58
2021/01/21 11:02:22;;;;;;;1.70;0.80;;;;;;;12.05;62.13;94872.00;5080268;28;20640;-62
2021/01/21 11:04:47;;;;;;;1.50;1.40;;;;;;;11.95;61.98;94874.69;5088428;28;20188;-65
2021/01/21 11:07:13;;;;;;;1.27;1.10;;;;;;;11.91;62.44;94886.81;5088464;28;20655;-60
2021/01/21 11:09:39;;;;;;;0.73;0.73;;;;;;;11.66;62.36;94875.59;5089859;28;20655;-59
2021/01/21 11:12:06;;;;;;;1.40;1.30;;;;;;;11.99;62.31;94872.31;5089607;28;20292;-59
2021/01/21 11:14:33;;;;;;;1.10;1.10;;;;;;;12.16;61.21;94881.44;5089599;28;20423;-60
2021/01/21 11:16:58;;;;;;;3.73;1.40;;;;;;;12.08;61.06;94874.09;5061921;28;20779;-60
2021/01/21 11:19:24;;;;;;;2.97;2.77;;;;;;;11.97;61.17;94869.94;5069308;28;20413;-60
2021/01/21 11:21:53;;;;;;;0.83;0.70;;;;;;;12.08;61.25;94868.06;5074486;28;20245;-59
2021/01/21 11:24:19;;;;;;;0.80;0.80;;;;;;;11.93;62.19;94874.19;5089264;28;20206;-60
2021/01/21 11:26:45;;;;;;;0.90;0.80;;;;;;;12.12;61.97;94854.06;5082661;28;20983;-59
2021/01/21 11:29:10;;;;;;;1.10;1.00;;;;;;;12.56;59.91;94861.16;5080716;28;20444;-60
2021/01/21 11:31:36;;;;;;;7.17;5.30;;;;;;;13.57;56.53;94861.06;5088544;28;20257;-60
2021/01/21 11:34:01;;;;;;;1.10;1.00;;;;;;;13.60;55.55;94853.38;5089585;28;20178;-60
2021/01/21 11:36:26;;;;;;;1.80;0.90;;;;;;;13.07;56.64;94849.16;5088694;28;20239;-60
2021/01/21 11:38:52;;;;;;;1.97;0.87;;;;;;;13.21;57.40;94856.16;5089723;28;20697;-59
2021/01/21 11:41:17;;;;;;;3.40;2.60;;;;;;;13.17;56.97;94854.38;5087338;28;20619;-60
2021/01/21 11:43:42;;;;;;;1.10;1.00;;;;;;;13.20;56.72;94854.59;5086106;28;20178;-59
2021/01/21 11:46:08;;;;;;;1.27;1.00;;;;;;;13.46;55.91;94849.81;5088133;28;20174;-60
2021/01/21 11:48:33;;;;;;;0.83;0.70;;;;;;;13.58;54.47;94855.50;5069633;28;20274;-59
2021/01/21 11:50:59;;;;;;;0.90;0.90;;;;;;;13.44;55.58;94842.19;5073277;28;20900;-62
2021/01/21 11:53:24;;;;;;;1.00;1.00;;;;;;;13.43;55.81;94839.84;5092595;28;20185;-64
2021/01/21 11:55:49;;;;;;;1.07;0.83;;;;;;;13.24;55.57;94847.66;5092976;28;20593;-64
2021/01/21 11:58:15;;;;;;;1.57;1.03;;;;;;;13.27;55.55;94846.34;5082715;28;20225;-64
2021/01/21 12:00:40;;;;;;;1.57;1.00;;;;;;;13.26;55.36;94842.91;5055403;28;20617;-60
2021/01/21 12:03:06;;;;;;;0.90;0.90;;;;;;;13.16;55.05;94840.38;5092707;28;20261;-58
2021/01/21 12:05:31;;;;;;;2.10;0.80;;;;;;;13.15;55.55;94830.13;5093212;28;20489;-63
2021/01/21 12:07:57;;;;;;;1.03;0.80;;;;;;;12.91;55.86;94842.44;5092345;28;20284;-59
2021/01/21 12:10:22;;;;;;;1.00;0.90;;;;;;;12.74;56.63;94832.28;5056072;28;20569;-58
2021/01/21 12:12:48;;;;;;;0.80;0.80;;;;;;;12.85;56.22;94835.63;5092669;28;20205;-60
2021/01/21 12:15:14;;;;;;;0.90;0.90;;;;;;;12.71;57.05;94821.50;5093362;28;20162;-63
2021/01/21 12:17:39;;;;;;;0.73;0.73;;;;;;;12.85;56.92;94828.50;5092580;28;20205;-57
2021/01/21 12:20:05;;;;;;;1.20;1.10;;;;;;;13.08;55.82;94825.16;5092965;28;20416;-62
2021/01/21 12:22:31;;;;;;;2.90;0.90;;;;;;;12.88;56.11;94829.81;5073527;28;20272;-61
2021/01/21 12:24:56;;;;;;;0.70;0.70;;;;;;;13.07;55.99;94825.44;5093190;28;20428;-58
2021/01/21 12:27:22;;;;;;;2.50;1.00;;;;;;;13.12;55.87;94812.19;5073372;28;20219;-59
2021/01/21 12:29:47;;;;;;;3.70;1.10;;;;;;;13.08;56.19;94808.56;5089184;28;20186;-59
2021/01/21 12:32:12;;;;;;;0.63;0.63;;;;;;;13.04;56.29;94826.00;5092626;28;20209;-61
2021/01/21 12:34:38;;;;;;;1.20;0.80;;;;;;;13.18;55.63;94817.16;5092768;28;20530;-63
2021/01/21 12:37:03;;;;;;;1.80;0.70;;;;;;;13.14;55.98;94823.25;5093025;28;20198;-61
2021/01/21 12:39:29;;;;;;;0.90;0.90;;;;;;;13.16;55.88;94826.41;5074736;28;20178;-63
2021/01/21 12:41:54;;;;;;;1.57;1.10;;;;;;;12.92;57.64;94820.25;5081172;28;20605;-63
2021/01/21 12:44:20;;;;;;;1.07;0.87;;;;;;;12.75;59.79;94814.63;5092589;28;20178;-61
2021/01/21 12:46:45;;;;;;;1.33;0.80;;;;;;;12.82;60.25;94807.97;5093015;28;20631;-65
2021/01/21 12:49:11;;;;;;;2.10;1.90;;;;;;;12.63;60.19;94820.25;5074691;28;20205;-60
2021/01/21 12:51:37;;;;;;;2.00;0.83;;;;;;;12.70;59.71;94817.31;5075999;28;20249;-66
2021/01/21 12:54:03;;;;;;;1.20;0.77;;;;;;;13.12;58.34;94813.00;5072320;28;20171;-62
2021/01/21 12:56:28;;;;;;;0.70;0.60;;;;;;;13.23;57.69;94809.19;5090611;28;20467;-60
2021/01/21 12:58:54;;;;;;;1.63;0.90;;;;;;;13.12;56.96;94799.81;5091741;28;20251;-60